sensor_id;sensor_type;location;lat;lon;timestamp;pressure;altitude;pressure_sealevel;temperature;humidity
69535;BME280;56754;51.568;5.048;2022-08-19T00:01:37;101329.03;;;22.77;63.26
69535;BME280;56754;51.568;5.048;2022-08-19T00:04:07;101326.31;;;22.77;63.32
69535;BME280;56754;51.568;5.048;2022-08-19T00:06:34;101331.38;;;22.75;63.35
69535;BME280;56754;51.568;5.048;2022-08-19T00:09:00;101326.28;;;22.74;63.22
69535;BME280;56754;51.568;5.048;2022-08-19T00:11:26;101330.97;;;22.73;63.11
69535;BME280;56754;51.568;5.048;2022-08-19T00:13:52;101330.19;;;22.73;63.46
69535;BME280;56754;51.568;5.048;2022-08-19T00:16:17;101334.06;;;22.71;63.45
69535;BME280;56754;51.568;5.048;2022-08-19T00:18:42;101326.28;;;22.70;63.55
69535;BME280;56754;51.568;5.048;2022-08-19T00:21:08;101333.66;;;22.69;63.67
69535;BME280;56754;51.568;5.048;2022-08-19T00:23:33;101325.09;;;22.67;63.39
69535;BME280;56754;51.568;5.048;2022-08-19T00:25:58;101324.31;;;22.67;63.26
69535;BME280;56754;51.568;5.048;2022-08-19T00:28:24;101321.16;;;22.65;63.59
69535;BME280;56754;51.568;5.048;2022-08-19T00:30:49;101327.78;;;22.64;63.66
69535;BME280;56754;51.568;5.048;2022-08-19T00:33:14;101325.06;;;22.64;63.64
69535;BME280;56754;51.568;5.048;2022-08-19T00:35:39;101320.78;;;22.63;63.42
69535;BME280;56754;51.568;5.048;2022-08-19T00:38:05;101321.94;;;22.62;63.58
69535;BME280;56754;51.568;5.048;2022-08-19T00:40:30;101323.88;;;22.61;63.55
69535;BME280;56754;51.568;5.048;2022-08-19T00:42:55;101329.31;;;22.61;63.64
69535;BME280;56754;51.568;5.048;2022-08-19T00:45:23;101329.72;;;22.60;63.87
69535;BME280;56754;51.568;5.048;2022-08-19T00:47:49;101326.19;;;22.59;63.72
69535;BME280;56754;51.568;5.048;2022-08-19T00:50:16;101333.59;;;22.59;63.61
69535;BME280;56754;51.568;5.048;2022-08-19T00:52:46;101334.75;;;22.58;63.72
69535;BME280;56754;51.568;5.048;2022-08-19T00:55:21;101329.69;;;22.56;63.88
69535;BME280;56754;51.568;5.048;2022-08-19T00:57:53;101323.44;;;22.56;63.83
69535;BME280;56754;51.568;5.048;2022-08-19T01:00:21;101322.69;;;22.55;63.67
69535;BME280;56754;51.568;5.048;2022-08-19T01:02:47;101327.34;;;22.55;63.84
69535;BME280;56754;51.568;5.048;2022-08-19T01:05:17;101321.13;;;22.54;63.88
69535;BME280;56754;51.568;5.048;2022-08-19T01:07:45;101327.72;;;22.53;63.82
69535;BME280;56754;51.568;5.048;2022-08-19T01:10:14;101325.38;;;22.52;63.62
69535;BME280;56754;51.568;5.048;2022-08-19T01:12:40;101323.03;;;22.50;63.93
69535;BME280;56754;51.568;5.048;2022-08-19T01:15:09;101334.69;;;22.51;63.92
69535;BME280;56754;51.568;5.048;2022-08-19T01:17:38;101326.91;;;22.49;64.06
69535;BME280;56754;51.568;5.048;2022-08-19T01:20:06;101328.84;;;22.48;63.91
69535;BME280;56754;51.568;5.048;2022-08-19T01:22:42;101332.72;;;22.47;63.78
69535;BME280;56754;51.568;5.048;2022-08-19T01:25:09;101328.44;;;22.46;63.93
69535;BME280;56754;51.568;5.048;2022-08-19T01:27:39;101331.53;;;22.45;64.12
69535;BME280;56754;51.568;5.048;2022-08-19T01:30:06;101326.09;;;22.45;63.95
69535;BME280;56754;51.568;5.048;2022-08-19T01:32:31;101322.97;;;22.43;64.06
69535;BME280;56754;51.568;5.048;2022-08-19T01:34:57;101324.94;;;22.42;63.90
69535;BME280;56754;51.568;5.048;2022-08-19T01:37:22;101323.75;;;22.40;63.97
69535;BME280;56754;51.568;5.048;2022-08-19T01:39:47;101325.69;;;22.39;63.85
69535;BME280;56754;51.568;5.048;2022-08-19T01:42:12;101319.81;;;22.37;64.05
69535;BME280;56754;51.568;5.048;2022-08-19T01:44:39;101328.34;;;22.36;63.75
69535;BME280;56754;51.568;5.048;2022-08-19T01:49:30;101334.19;;;22.34;63.98
69535;BME280;56754;51.568;5.048;2022-08-19T01:51:56;101329.91;;;22.33;63.88
69535;BME280;56754;51.568;5.048;2022-08-19T01:54:23;101332.22;;;22.31;64.01
69535;BME280;56754;51.568;5.048;2022-08-19T01:56:50;101332.22;;;22.31;63.92
69535;BME280;56754;51.568;5.048;2022-08-19T01:59:21;101329.88;;;22.30;63.97
69535;BME280;56754;51.568;5.048;2022-08-19T02:01:48;101329.09;;;22.29;64.08
69535;BME280;56754;51.568;5.048;2022-08-19T02:04:13;101332.97;;;22.28;63.92
69535;BME280;56754;51.568;5.048;2022-08-19T02:06:39;101338.78;;;22.26;63.94
69535;BME280;56754;51.568;5.048;2022-08-19T02:09:05;101336.06;;;22.26;63.86
69535;BME280;56754;51.568;5.048;2022-08-19T02:11:34;101350.84;;;22.25;63.98
69535;BME280;56754;51.568;5.048;2022-08-19T02:14:02;101339.19;;;22.25;63.89
69535;BME280;56754;51.568;5.048;2022-08-19T02:16:28;101348.50;;;22.24;64.02
69535;BME280;56754;51.568;5.048;2022-08-19T02:18:53;101363.28;;;22.23;64.24
69535;BME280;56754;51.568;5.048;2022-08-19T02:21:21;101362.84;;;22.21;63.94
69535;BME280;56754;51.568;5.048;2022-08-19T02:23:47;101357.41;;;22.21;64.02
69535;BME280;56754;51.568;5.048;2022-08-19T02:26:13;101356.63;;;22.20;64.07
69535;BME280;56754;51.568;5.048;2022-08-19T02:28:40;101350.00;;;22.18;64.13
69535;BME280;56754;51.568;5.048;2022-08-19T02:31:14;101350.00;;;22.18;63.99
69535;BME280;56754;51.568;5.048;2022-08-19T02:33:39;101344.56;;;22.18;63.98
69535;BME280;56754;51.568;5.048;2022-08-19T02:36:05;101346.50;;;22.17;64.01
69535;BME280;56754;51.568;5.048;2022-08-19T02:38:31;101351.16;;;22.17;63.86
69535;BME280;56754;51.568;5.048;2022-08-19T02:41:25;101348.00;;;22.15;64.13
69535;BME280;56754;51.568;5.048;2022-08-19T02:43:51;101345.28;;;22.15;63.96
69535;BME280;56754;51.568;5.048;2022-08-19T02:46:19;101354.59;;;22.14;63.92
69535;BME280;56754;51.568;5.048;2022-08-19T02:48:45;101351.47;;;22.12;63.93
69535;BME280;56754;51.568;5.048;2022-08-19T02:51:19;101347.97;;;22.11;64.26
69535;BME280;56754;51.568;5.048;2022-08-19T02:53:47;101347.97;;;22.11;64.00
69535;BME280;56754;51.568;5.048;2022-08-19T02:56:13;101342.91;;;22.10;63.90
69535;BME280;56754;51.568;5.048;2022-08-19T02:58:39;101338.59;;;22.09;64.30
69535;BME280;56754;51.568;5.048;2022-08-19T03:01:04;101343.28;;;22.08;64.05
69535;BME280;56754;51.568;5.048;2022-08-19T03:03:29;101349.88;;;22.07;64.11
69535;BME280;56754;51.568;5.048;2022-08-19T03:06:24;101347.53;;;22.06;64.14
69535;BME280;56754;51.568;5.048;2022-08-19T03:08:50;101342.47;;;22.04;64.23
69535;BME280;56754;51.568;5.048;2022-08-19T03:13:46;101333.50;;;22.03;64.02
69535;BME280;56754;51.568;5.048;2022-08-19T03:16:12;101339.75;;;22.04;64.00
69535;BME280;56754;51.568;5.048;2022-08-19T03:18:38;101337.38;;;22.02;64.27
69535;BME280;56754;51.568;5.048;2022-08-19T03:21:04;101340.13;;;22.02;64.35
69535;BME280;56754;51.568;5.048;2022-08-19T03:23:29;101346.31;;;21.99;64.09
69535;BME280;56754;51.568;5.048;2022-08-19T03:25:55;101342.81;;;21.99;64.03
69535;BME280;56754;51.568;5.048;2022-08-19T03:28:20;101343.97;;;21.98;63.94
69535;BME280;56754;51.568;5.048;2022-08-19T03:31:00;101342.03;;;21.98;64.18
69535;BME280;56754;51.568;5.048;2022-08-19T03:33:27;101341.63;;;21.96;63.89
69535;BME280;56754;51.568;5.048;2022-08-19T03:38:31;101342.78;;;21.95;64.03
69535;BME280;56754;51.568;5.048;2022-08-19T03:40:57;101349.78;;;21.96;64.08
69535;BME280;56754;51.568;5.048;2022-08-19T03:43:22;101349.34;;;21.94;64.19
69535;BME280;56754;51.568;5.048;2022-08-19T03:45:47;101340.41;;;21.94;64.08
69535;BME280;56754;51.568;5.048;2022-08-19T03:48:12;101347.03;;;21.93;64.18
69535;BME280;56754;51.568;5.048;2022-08-19T03:50:39;101346.25;;;21.92;64.09
69535;BME280;56754;51.568;5.048;2022-08-19T03:53:04;101338.09;;;21.92;64.06
69535;BME280;56754;51.568;5.048;2022-08-19T03:55:30;101329.91;;;21.92;64.10
69535;BME280;56754;51.568;5.048;2022-08-19T03:57:55;101324.06;;;21.90;64.05
69535;BME280;56754;51.568;5.048;2022-08-19T04:00:20;101333.38;;;21.89;64.07
69535;BME280;56754;51.568;5.048;2022-08-19T04:02:46;101333.38;;;21.89;64.17
69535;BME280;56754;51.568;5.048;2022-08-19T04:05:11;101331.81;;;21.88;63.97
69535;BME280;56754;51.568;5.048;2022-08-19T04:07:36;101336.47;;;21.88;64.07
69535;BME280;56754;51.568;5.048;2022-08-19T04:10:03;101336.47;;;21.88;64.24
69535;BME280;56754;51.568;5.048;2022-08-19T04:12:28;101334.13;;;21.86;64.31
69535;BME280;56754;51.568;5.048;2022-08-19T04:14:54;101334.13;;;21.86;64.16
69535;BME280;56754;51.568;5.048;2022-08-19T04:17:19;101333.72;;;21.84;64.08
69535;BME280;56754;51.568;5.048;2022-08-19T04:19:44;101331.78;;;21.85;64.19
69535;BME280;56754;51.568;5.048;2022-08-19T04:22:09;101331.00;;;21.84;64.20
69535;BME280;56754;51.568;5.048;2022-08-19T04:24:35;101328.63;;;21.83;64.18
69535;BME280;56754;51.568;5.048;2022-08-19T04:27:01;101327.88;;;21.82;64.18
69535;BME280;56754;51.568;5.048;2022-08-19T04:29:26;101327.09;;;21.81;64.17
69535;BME280;56754;51.568;5.048;2022-08-19T04:31:53;101325.53;;;21.80;64.07
69535;BME280;56754;51.568;5.048;2022-08-19T04:34:21;101324.75;;;21.80;64.16
69535;BME280;56754;51.568;5.048;2022-08-19T04:36:47;101324.75;;;21.80;63.97
69535;BME280;56754;51.568;5.048;2022-08-19T04:39:19;101329.78;;;21.78;64.21
69535;BME280;56754;51.568;5.048;2022-08-19T04:41:44;101324.34;;;21.78;64.21
69535;BME280;56754;51.568;5.048;2022-08-19T04:44:11;101322.78;;;21.77;64.24
69535;BME280;56754;51.568;5.048;2022-08-19T04:46:37;101330.94;;;21.77;64.13
69535;BME280;56754;51.568;5.048;2022-08-19T04:49:04;101329.34;;;21.76;64.15
69535;BME280;56754;51.568;5.048;2022-08-19T04:51:32;101333.25;;;21.75;64.21
69535;BME280;56754;51.568;5.048;2022-08-19T04:53:58;101336.75;;;21.75;64.27
69535;BME280;56754;51.568;5.048;2022-08-19T04:56:24;101342.97;;;21.76;64.01
69535;BME280;56754;51.568;5.048;2022-08-19T04:58:49;101343.34;;;21.74;63.96
69535;BME280;56754;51.568;5.048;2022-08-19T05:01:18;101346.06;;;21.74;64.03
69535;BME280;56754;51.568;5.048;2022-08-19T05:03:44;101350.72;;;21.74;64.27
69535;BME280;56754;51.568;5.048;2022-08-19T05:06:12;101354.97;;;21.71;64.10
69535;BME280;56754;51.568;5.048;2022-08-19T05:08:40;101354.97;;;21.71;64.07
69535;BME280;56754;51.568;5.048;2022-08-19T05:11:24;101353.81;;;21.72;64.18
69535;BME280;56754;51.568;5.048;2022-08-19T05:13:50;101361.97;;;21.72;64.05
69535;BME280;56754;51.568;5.048;2022-08-19T05:16:19;101359.25;;;21.72;64.11
69535;BME280;56754;51.568;5.048;2022-08-19T05:18:45;101361.97;;;21.72;64.17
69535;BME280;56754;51.568;5.048;2022-08-19T05:21:13;101366.63;;;21.72;64.23
69535;BME280;56754;51.568;5.048;2022-08-19T05:23:39;101370.13;;;21.72;63.97
69535;BME280;56754;51.568;5.048;2022-08-19T05:26:04;101369.38;;;21.72;63.86
69535;BME280;56754;51.568;5.048;2022-08-19T05:28:30;101370.13;;;21.72;63.96
69535;BME280;56754;51.568;5.048;2022-08-19T05:30:55;101366.63;;;21.72;63.85
69535;BME280;56754;51.568;5.048;2022-08-19T05:33:21;101366.63;;;21.72;64.05
69535;BME280;56754;51.568;5.048;2022-08-19T05:35:48;101365.06;;;21.71;63.84
69535;BME280;56754;51.568;5.048;2022-08-19T05:38:14;101372.09;;;21.72;63.83
69535;BME280;56754;51.568;5.048;2022-08-19T05:40:39;101368.19;;;21.73;64.03
69535;BME280;56754;51.568;5.048;2022-08-19T05:43:06;101370.91;;;21.73;63.84
69535;BME280;56754;51.568;5.048;2022-08-19T05:45:37;101368.63;;;21.75;63.83
69535;BME280;56754;51.568;5.048;2022-08-19T05:48:03;101370.56;;;21.74;63.80
69535;BME280;56754;51.568;5.048;2022-08-19T05:50:28;101363.16;;;21.75;63.64
69535;BME280;56754;51.568;5.048;2022-08-19T05:52:53;101365.91;;;21.75;63.50
69535;BME280;56754;51.568;5.048;2022-08-19T05:55:19;101364.38;;;21.77;63.42
69535;BME280;56754;51.568;5.048;2022-08-19T05:57:44;101356.97;;;21.78;63.37
69535;BME280;56754;51.568;5.048;2022-08-19T06:00:10;101369.03;;;21.77;63.49
69535;BME280;56754;51.568;5.048;2022-08-19T06:02:35;101368.63;;;21.75;63.43
69535;BME280;56754;51.568;5.048;2022-08-19T06:05:03;101369.38;;;21.72;63.30
69535;BME280;56754;51.568;5.048;2022-08-19T06:07:29;101370.88;;;21.69;63.42
69535;BME280;56754;51.568;5.048;2022-08-19T06:09:55;101371.63;;;21.66;63.29
69535;BME280;56754;51.568;5.048;2022-08-19T06:12:20;101373.56;;;21.66;63.30
69535;BME280;56754;51.568;5.048;2022-08-19T06:14:45;101367.34;;;21.65;63.32
69535;BME280;56754;51.568;5.048;2022-08-19T06:17:11;101370.84;;;21.66;63.37
69535;BME280;56754;51.568;5.048;2022-08-19T06:19:36;101369.69;;;21.67;63.18
69535;BME280;56754;51.568;5.048;2022-08-19T06:22:01;101366.22;;;21.70;63.05
69535;BME280;56754;51.568;5.048;2022-08-19T06:24:28;101376.78;;;21.75;62.85
69535;BME280;56754;51.568;5.048;2022-08-19T06:26:55;101373.72;;;21.80;62.94
69535;BME280;56754;51.568;5.048;2022-08-19T06:29:24;101371.44;;;21.86;62.86
69535;BME280;56754;51.568;5.048;2022-08-19T06:31:54;101370.31;;;21.90;62.29
69535;BME280;56754;51.568;5.048;2022-08-19T06:34:20;101376.56;;;21.94;62.45
69535;BME280;56754;51.568;5.048;2022-08-19T06:36:49;101378.56;;;21.97;62.20
69535;BME280;56754;51.568;5.048;2022-08-19T06:39:21;101374.72;;;22.02;62.05
69535;BME280;56754;51.568;5.048;2022-08-19T06:41:49;101375.91;;;22.04;61.98
69535;BME280;56754;51.568;5.048;2022-08-19T06:44:16;101375.53;;;22.06;62.02
69535;BME280;56754;51.568;5.048;2022-08-19T06:46:41;101382.16;;;22.09;61.75
69535;BME280;56754;51.568;5.048;2022-08-19T06:49:08;101375.19;;;22.11;61.69
69535;BME280;56754;51.568;5.048;2022-08-19T06:51:33;101369.38;;;22.13;61.51
69535;BME280;56754;51.568;5.048;2022-08-19T06:53:58;101378.72;;;22.15;60.97
69535;BME280;56754;51.568;5.048;2022-08-19T06:56:27;101379.94;;;22.18;61.06
69535;BME280;56754;51.568;5.048;2022-08-19T06:58:52;101384.25;;;22.19;61.15
69535;BME280;56754;51.568;5.048;2022-08-19T07:01:19;101375.34;;;22.22;61.23
69535;BME280;56754;51.568;5.048;2022-08-19T07:03:45;101385.47;;;22.25;61.44
69535;BME280;56754;51.568;5.048;2022-08-19T07:06:13;101385.84;;;22.27;61.33
69535;BME280;56754;51.568;5.048;2022-08-19T07:08:39;101393.25;;;22.26;61.01
69535;BME280;56754;51.568;5.048;2022-08-19T07:11:09;101392.06;;;22.24;61.63
69535;BME280;56754;51.568;5.048;2022-08-19T07:13:36;101394.00;;;22.23;61.44
69535;BME280;56754;51.568;5.048;2022-08-19T07:16:13;101398.66;;;22.23;61.48
69535;BME280;56754;51.568;5.048;2022-08-19T07:18:40;101391.66;;;22.22;61.95
69535;BME280;56754;51.568;5.048;2022-08-19T07:21:10;101397.13;;;22.22;61.77
69535;BME280;56754;51.568;5.048;2022-08-19T07:23:36;101392.81;;;22.21;62.37
69535;BME280;56754;51.568;5.048;2022-08-19T07:26:06;101397.47;;;22.20;62.29
69535;BME280;56754;51.568;5.048;2022-08-19T07:28:32;101392.41;;;22.19;62.09
69535;BME280;56754;51.568;5.048;2022-08-19T07:30:57;101399.41;;;22.20;62.42
69535;BME280;56754;51.568;5.048;2022-08-19T07:33:22;101392.81;;;22.21;61.46
69535;BME280;56754;51.568;5.048;2022-08-19T07:35:48;101394.41;;;22.22;61.94
69535;BME280;56754;51.568;5.048;2022-08-19T07:38:13;101402.16;;;22.23;61.35
69535;BME280;56754;51.568;5.048;2022-08-19T07:40:38;101392.88;;;22.24;62.01
69535;BME280;56754;51.568;5.048;2022-08-19T07:43:04;101396.72;;;22.23;62.17
69535;BME280;56754;51.568;5.048;2022-08-19T07:45:29;101397.50;;;22.24;62.38
69535;BME280;56754;51.568;5.048;2022-08-19T07:47:54;101399.09;;;22.25;61.76
69535;BME280;56754;51.568;5.048;2022-08-19T07:50:20;101395.19;;;22.26;61.87
69535;BME280;56754;51.568;5.048;2022-08-19T07:52:45;101397.56;;;22.28;62.30
69535;BME280;56754;51.568;5.048;2022-08-19T07:55:11;101409.22;;;22.28;62.50
69535;BME280;56754;51.568;5.048;2022-08-19T07:57:36;101405.34;;;22.29;61.83
69535;BME280;56754;51.568;5.048;2022-08-19T08:00:04;101410.41;;;22.31;61.66
69535;BME280;56754;51.568;5.048;2022-08-19T08:02:29;101417.84;;;22.34;61.53
69535;BME280;56754;51.568;5.048;2022-08-19T08:07:20;101409.69;;;22.37;62.60
69535;BME280;56754;51.568;5.048;2022-08-19T08:09:45;101413.97;;;22.38;62.07
69535;BME280;56754;51.568;5.048;2022-08-19T08:12:32;101417.88;;;22.37;62.94
69535;BME280;56754;51.568;5.048;2022-08-19T08:15:01;101425.25;;;22.37;62.38
69535;BME280;56754;51.568;5.048;2022-08-19T08:17:29;101425.66;;;22.39;61.50
69535;BME280;56754;51.568;5.048;2022-08-19T08:19:54;101422.19;;;22.42;62.83
69535;BME280;56754;51.568;5.048;2022-08-19T08:22:21;101425.31;;;22.44;63.23
69535;BME280;56754;51.568;5.048;2022-08-19T08:24:47;101419.44;;;22.42;63.58
69535;BME280;56754;51.568;5.048;2022-08-19T08:27:12;101430.72;;;22.40;63.69
69535;BME280;56754;51.568;5.048;2022-08-19T08:29:37;101432.69;;;22.40;63.58
69535;BME280;56754;51.568;5.048;2022-08-19T08:32:03;101432.25;;;22.38;63.59
69535;BME280;56754;51.568;5.048;2022-08-19T08:34:28;101442.78;;;22.39;63.43
69535;BME280;56754;51.568;5.048;2022-08-19T08:36:53;101446.69;;;22.42;63.65
69535;BME280;56754;51.568;5.048;2022-08-19T08:39:20;101443.59;;;22.43;63.29
69535;BME280;56754;51.568;5.048;2022-08-19T08:44:25;101439.34;;;22.46;63.56
69535;BME280;56754;51.568;5.048;2022-08-19T08:47:00;101447.13;;;22.47;63.17
69535;BME280;56754;51.568;5.048;2022-08-19T08:49:48;101452.22;;;22.49;63.04
69535;BME280;56754;51.568;5.048;2022-08-19T08:52:21;101453.41;;;22.52;63.41
69535;BME280;56754;51.568;5.048;2022-08-19T08:54:48;101450.69;;;22.52;63.11
69535;BME280;56754;51.568;5.048;2022-08-19T08:57:19;101458.47;;;22.53;63.54
69535;BME280;56754;51.568;5.048;2022-08-19T08:59:47;101451.06;;;22.54;63.20
69535;BME280;56754;51.568;5.048;2022-08-19T09:02:13;101449.94;;;22.55;63.03
69535;BME280;56754;51.568;5.048;2022-08-19T09:04:38;101454.22;;;22.56;63.16
69535;BME280;56754;51.568;5.048;2022-08-19T09:09:52;101451.91;;;22.58;63.05
69535;BME280;56754;51.568;5.048;2022-08-19T09:15:05;101454.66;;;22.61;63.14
69535;BME280;56754;51.568;5.048;2022-08-19T09:17:31;101454.28;;;22.63;63.09
69535;BME280;56754;51.568;5.048;2022-08-19T09:20:15;101462.84;;;22.65;63.01
69535;BME280;56754;51.568;5.048;2022-08-19T09:22:43;101465.56;;;22.65;63.13
69535;BME280;56754;51.568;5.048;2022-08-19T09:25:09;101465.56;;;22.65;62.47
69535;BME280;56754;51.568;5.048;2022-08-19T09:27:37;101466.78;;;22.67;63.47
69535;BME280;56754;51.568;5.048;2022-08-19T09:30:03;101476.47;;;22.65;63.33
69535;BME280;56754;51.568;5.048;2022-08-19T09:32:29;101467.94;;;22.66;63.25
69535;BME280;56754;51.568;5.048;2022-08-19T09:34:54;101463.28;;;22.67;63.29
69535;BME280;56754;51.568;5.048;2022-08-19T09:37:20;101464.81;;;22.68;62.48
69535;BME280;56754;51.568;5.048;2022-08-19T09:39:46;101463.69;;;22.69;61.59
69535;BME280;56754;51.568;5.048;2022-08-19T09:42:11;101473.03;;;22.71;62.49
69535;BME280;56754;51.568;5.048;2022-08-19T09:44:37;101468.00;;;22.74;62.53
69535;BME280;56754;51.568;5.048;2022-08-19T09:47:03;101467.63;;;22.75;62.88
69535;BME280;56754;51.568;5.048;2022-08-19T09:49:28;101458.66;;;22.75;63.29
69535;BME280;56754;51.568;5.048;2022-08-19T09:51:54;101458.66;;;22.75;63.08
69535;BME280;56754;51.568;5.048;2022-08-19T09:54:19;101467.63;;;22.75;63.07
69535;BME280;56754;51.568;5.048;2022-08-19T09:56:44;101462.56;;;22.77;62.12
69535;BME280;56754;51.568;5.048;2022-08-19T09:59:10;101462.63;;;22.81;61.82
69535;BME280;56754;51.568;5.048;2022-08-19T10:01:35;101461.47;;;22.85;61.48
69535;BME280;56754;51.568;5.048;2022-08-19T10:04:01;101463.44;;;22.88;61.11
69535;BME280;56754;51.568;5.048;2022-08-19T10:06:28;101473.56;;;22.91;61.04
69535;BME280;56754;51.568;5.048;2022-08-19T10:08:54;101469.31;;;22.94;61.08
69535;BME280;56754;51.568;5.048;2022-08-19T10:11:20;101467.03;;;22.96;60.90
69535;BME280;56754;51.568;5.048;2022-08-19T10:13:46;101465.50;;;22.99;61.06
69535;BME280;56754;51.568;5.048;2022-08-19T10:16:17;101454.19;;;23.00;61.59
69535;BME280;56754;51.568;5.048;2022-08-19T10:18:43;101456.56;;;23.02;61.52
69535;BME280;56754;51.568;5.048;2022-08-19T10:21:16;101465.13;;;23.04;61.38
69535;BME280;56754;51.568;5.048;2022-08-19T10:23:47;101462.03;;;23.05;61.76
69535;BME280;56754;51.568;5.048;2022-08-19T10:26:15;101460.50;;;23.08;61.53
69535;BME280;56754;51.568;5.048;2022-08-19T10:28:41;101463.59;;;23.10;61.15
69535;BME280;56754;51.568;5.048;2022-08-19T10:31:09;101456.63;;;23.12;61.02
69535;BME280;56754;51.568;5.048;2022-08-19T10:33:36;101452.00;;;23.16;60.96
69535;BME280;56754;51.568;5.048;2022-08-19T10:36:04;101461.75;;;23.21;61.19
69535;BME280;56754;51.568;5.048;2022-08-19T10:38:30;101453.19;;;23.23;61.04
69535;BME280;56754;51.568;5.048;2022-08-19T10:40:55;101452.44;;;23.26;61.32
69535;BME280;56754;51.568;5.048;2022-08-19T10:43:21;101453.97;;;23.27;61.33
69535;BME280;56754;51.568;5.048;2022-08-19T10:45:53;101451.66;;;23.29;61.02
69535;BME280;56754;51.568;5.048;2022-08-19T10:48:19;101445.44;;;23.32;60.92
69535;BME280;56754;51.568;5.048;2022-08-19T10:50:44;101447.41;;;23.35;60.71
69535;BME280;56754;51.568;5.048;2022-08-19T10:53:10;101441.19;;;23.38;60.77
69535;BME280;56754;51.568;5.048;2022-08-19T10:55:35;101450.56;;;23.41;60.77
69535;BME280;56754;51.568;5.048;2022-08-19T10:58:00;101448.63;;;23.45;60.47
69535;BME280;56754;51.568;5.048;2022-08-19T11:00:25;101438.13;;;23.47;60.46
69535;BME280;56754;51.568;5.048;2022-08-19T11:02:51;101436.56;;;23.49;60.32
69535;BME280;56754;51.568;5.048;2022-08-19T11:05:17;101438.91;;;23.51;60.38
69535;BME280;56754;51.568;5.048;2022-08-19T11:07:43;101443.59;;;23.54;60.15
69535;BME280;56754;51.568;5.048;2022-08-19T11:10:11;101446.31;;;23.54;60.07
69535;BME280;56754;51.568;5.048;2022-08-19T11:12:37;101445.97;;;23.55;60.15
69535;BME280;56754;51.568;5.048;2022-08-19T11:15:03;101448.28;;;23.57;59.84
69535;BME280;56754;51.568;5.048;2022-08-19T11:17:28;101456.88;;;23.59;59.89
69535;BME280;56754;51.568;5.048;2022-08-19T11:19:54;101446.38;;;23.61;59.70
69535;BME280;56754;51.568;5.048;2022-08-19T11:22:19;101446.38;;;23.61;59.68
69535;BME280;56754;51.568;5.048;2022-08-19T11:24:44;101446.38;;;23.65;59.70
69535;BME280;56754;51.568;5.048;2022-08-19T11:27:10;101435.06;;;23.66;59.58
69535;BME280;56754;51.568;5.048;2022-08-19T11:29:38;101437.03;;;23.69;59.63
69535;BME280;56754;51.568;5.048;2022-08-19T11:32:07;101430.44;;;23.70;59.46
69535;BME280;56754;51.568;5.048;2022-08-19T11:34:33;101440.97;;;23.72;59.73
69535;BME280;56754;51.568;5.048;2022-08-19T11:36:58;101435.16;;;23.73;59.38
69535;BME280;56754;51.568;5.048;2022-08-19T11:39:25;101443.72;;;23.75;59.46
69535;BME280;56754;51.568;5.048;2022-08-19T11:41:51;101435.94;;;23.77;59.26
69535;BME280;56754;51.568;5.048;2022-08-19T11:44:16;101442.16;;;23.78;59.22
69535;BME280;56754;51.568;5.048;2022-08-19T11:46:43;101432.03;;;23.78;59.09
69535;BME280;56754;51.568;5.048;2022-08-19T11:49:09;101432.44;;;23.80;59.42
69535;BME280;56754;51.568;5.048;2022-08-19T11:51:34;101426.59;;;23.82;59.04
69535;BME280;56754;51.568;5.048;2022-08-19T11:54:00;101432.06;;;23.82;59.02
69535;BME280;56754;51.568;5.048;2022-08-19T11:56:27;101432.81;;;23.82;59.16
69535;BME280;56754;51.568;5.048;2022-08-19T11:58:53;101428.91;;;23.83;59.05
69535;BME280;56754;51.568;5.048;2022-08-19T12:01:20;101438.69;;;23.84;59.06
69535;BME280;56754;51.568;5.048;2022-08-19T12:03:48;101447.25;;;23.87;59.03
69535;BME280;56754;51.568;5.048;2022-08-19T12:06:17;101437.94;;;23.88;59.03
69535;BME280;56754;51.568;5.048;2022-08-19T12:08:44;101438.69;;;23.88;59.04
69535;BME280;56754;51.568;5.048;2022-08-19T12:11:11;101441.03;;;23.90;59.20
69535;BME280;56754;51.568;5.048;2022-08-19T12:13:37;101441.03;;;23.90;58.84
69535;BME280;56754;51.568;5.048;2022-08-19T12:16:17;101437.16;;;23.91;58.98
69535;BME280;56754;51.568;5.048;2022-08-19T12:18:44;101441.84;;;23.90;59.04
69535;BME280;56754;51.568;5.048;2022-08-19T12:21:09;101438.69;;;23.88;59.22
69535;BME280;56754;51.568;5.048;2022-08-19T12:23:35;101440.25;;;23.86;59.44
69535;BME280;56754;51.568;5.048;2022-08-19T12:26:00;101442.56;;;23.83;59.66
69535;BME280;56754;51.568;5.048;2022-08-19T12:28:25;101438.28;;;23.82;59.59
69535;BME280;56754;51.568;5.048;2022-08-19T12:30:51;101437.50;;;23.82;59.49
69535;BME280;56754;51.568;5.048;2022-08-19T12:33:18;101439.06;;;23.83;59.41
69535;BME280;56754;51.568;5.048;2022-08-19T12:35:44;101435.56;;;23.82;59.63
69535;BME280;56754;51.568;5.048;2022-08-19T12:38:11;101432.81;;;23.82;59.63
69535;BME280;56754;51.568;5.048;2022-08-19T12:40:36;101432.81;;;23.82;59.81
69535;BME280;56754;51.568;5.048;2022-08-19T12:43:02;101434.00;;;23.81;59.65
69535;BME280;56754;51.568;5.048;2022-08-19T12:45:27;101432.81;;;23.82;59.62
69535;BME280;56754;51.568;5.048;2022-08-19T12:47:53;101428.16;;;23.83;59.79
69535;BME280;56754;51.568;5.048;2022-08-19T12:50:18;101434.38;;;23.83;59.63
69535;BME280;56754;51.568;5.048;2022-08-19T12:52:43;101430.88;;;23.83;59.77
69535;BME280;56754;51.568;5.048;2022-08-19T12:55:09;101432.06;;;23.86;59.56
69535;BME280;56754;51.568;5.048;2022-08-19T12:57:35;101430.50;;;23.88;59.37
69535;BME280;56754;51.568;5.048;2022-08-19T13:00:09;101433.66;;;23.90;59.46
69535;BME280;56754;51.568;5.048;2022-08-19T13:02:35;101419.59;;;23.92;59.20
69535;BME280;56754;51.568;5.048;2022-08-19T13:05:00;101426.59;;;23.93;59.28
69535;BME280;56754;51.568;5.048;2022-08-19T13:07:25;101420.78;;;23.94;59.24